createdAt,value
2019-01-17T05:48:43.949Z,56.94
2019-01-17T10:47:52.663Z,36.69
2019-01-17T11:07:51.018Z,36.26
2019-01-17T11:10:17.696Z,35.60
2019-01-17T11:12:44.426Z,35.71
2019-01-17T11:15:11.075Z,35.45
2019-01-17T11:17:37.693Z,34.12
2019-01-17T11:20:04.562Z,34.24
2019-01-17T11:22:31.626Z,34.78
2019-01-17T11:24:58.570Z,35.27
2019-01-17T11:27:25.911Z,34.14
2019-01-17T11:29:52.662Z,34.13
2019-01-17T11:32:19.664Z,34.23
2019-01-17T11:34:46.564Z,33.80
2019-01-17T11:37:13.252Z,34.06
2019-01-17T11:39:39.842Z,33.43
2019-01-17T11:42:06.605Z,33.06
2019-01-17T11:44:33.273Z,34.18
2019-01-17T11:47:00.182Z,32.46
2019-01-17T11:49:26.816Z,31.71
2019-01-17T11:51:53.477Z,32.27
2019-01-17T11:54:20.146Z,31.79
2019-01-17T11:56:46.856Z,31.77
2019-01-17T11:59:13.573Z,31.39
2019-01-17T12:01:40.205Z,30.63
2019-01-17T12:04:07.151Z,30.67
2019-01-17T12:06:34.215Z,33.14
2019-01-17T12:09:01.281Z,32.56
2019-01-17T12:11:28.014Z,31.84
2019-01-17T12:13:56.325Z,31.81
2019-01-17T12:16:22.986Z,31.28
2019-01-17T12:18:49.936Z,31.91
2019-01-17T12:21:16.922Z,32.31
2019-01-17T12:23:43.623Z,30.80
2019-01-17T12:26:10.312Z,30.87
2019-01-17T12:28:37.102Z,30.98
2019-01-17T12:31:04.345Z,31.08
2019-01-17T12:33:31.111Z,30.70
2019-01-17T12:35:58.412Z,30.99
2019-01-17T12:38:26.470Z,31.63
2019-01-17T12:40:53.215Z,31.96
2019-01-17T12:43:20.232Z,30.40
2019-01-17T12:45:47.239Z,31.16
2019-01-17T12:48:14.451Z,31.09
2019-01-17T12:50:41.396Z,30.91
2019-01-17T12:53:08.444Z,30.56
2019-01-17T12:55:35.371Z,30.61
2019-01-17T12:58:02.273Z,31.48
2019-01-17T13:00:29.223Z,29.88
2019-01-17T13:02:56.574Z,30.35
2019-01-17T13:05:23.254Z,30.49
2019-01-17T13:07:49.906Z,30.95
2019-01-17T13:10:16.537Z,31.15
2019-01-17T13:12:43.431Z,31.25
2019-01-17T13:15:10.591Z,30.67
2019-01-17T13:17:37.765Z,30.71
2019-01-17T13:20:05.293Z,32.10
2019-01-17T13:22:32.255Z,30.63
2019-01-17T13:24:58.859Z,30.31
2019-01-17T13:27:26.969Z,29.57
2019-01-17T13:29:53.613Z,30.68
2019-01-17T13:32:20.273Z,30.92
2019-01-17T13:34:46.911Z,30.79
2019-01-17T13:37:13.663Z,31.18
2019-01-17T13:39:40.272Z,30.51
2019-01-17T13:42:07.136Z,31.08
2019-01-17T13:44:34.065Z,31.07
2019-01-17T13:47:01.077Z,31.22
2019-01-17T13:49:28.048Z,31.64
2019-01-17T13:51:54.847Z,31.06
2019-01-17T13:54:21.463Z,31.35
2019-01-17T13:56:48.102Z,31.93
2019-01-17T13:59:15.244Z,31.69
2019-01-17T14:01:42.200Z,31.65
2019-01-17T14:04:09.268Z,32.41
2019-01-17T14:06:36.178Z,32.16
2019-01-17T14:09:03.404Z,32.67
2019-01-17T14:11:30.200Z,32.89
2019-01-17T14:13:57.530Z,32.81
2019-01-17T14:16:24.143Z,32.26
2019-01-17T14:18:50.768Z,31.50
2019-01-17T14:21:17.427Z,31.60
2019-01-17T14:23:44.485Z,32.08
2019-01-17T14:26:12.299Z,32.72
2019-01-17T14:28:39.199Z,32.47
2019-01-17T14:31:05.826Z,33.11
2019-01-17T14:33:32.815Z,33.78
2019-01-17T14:35:59.605Z,33.61
2019-01-17T14:38:28.135Z,33.72
2019-01-17T14:40:54.824Z,34.05
2019-01-17T14:43:21.538Z,34.40
2019-01-17T14:45:49.369Z,33.98
2019-01-17T14:48:16.051Z,34.21
2019-01-17T14:50:42.673Z,34.19
2019-01-17T14:53:09.885Z,34.97
2019-01-17T14:55:36.859Z,35.23
2019-01-17T14:58:03.859Z,35.68
2019-01-17T15:00:30.581Z,35.78
2019-01-17T15:02:57.966Z,35.62
2019-01-17T15:05:24.751Z,36.53
2019-01-17T15:07:51.639Z,36.90
2019-01-17T15:10:18.708Z,37.23
2019-01-17T15:12:45.330Z,37.47
2019-01-17T15:15:12.082Z,37.30
2019-01-17T15:17:38.837Z,37.06
2019-01-17T15:20:05.757Z,37.77
2019-01-17T15:22:32.373Z,38.12
2019-01-17T15:24:59.143Z,38.90
2019-01-17T15:27:27.408Z,38.80
2019-01-17T15:29:54.235Z,39.15
2019-01-17T15:32:20.955Z,39.49
2019-01-17T15:34:47.901Z,39.50
2019-01-17T15:37:14.643Z,39.71
2019-01-17T15:39:41.297Z,40.09
2019-01-17T15:42:07.924Z,40.43
2019-01-17T15:44:34.577Z,40.90
2019-01-17T15:47:01.243Z,41.53
2019-01-17T15:49:28.400Z,42.27
2019-01-17T15:51:55.155Z,42.16
2019-01-17T15:54:22.098Z,42.78
2019-01-17T15:56:49.046Z,42.80
2019-01-17T15:59:15.682Z,43.59
2019-01-17T16:01:42.442Z,43.67
2019-01-17T16:04:09.045Z,43.45
2019-01-17T16:06:36.277Z,44.09
2019-01-17T16:09:03.140Z,44.20
2019-01-17T16:11:30.154Z,43.73
2019-01-17T16:13:58.506Z,43.74
2019-01-17T16:16:25.300Z,43.77
2019-01-17T16:18:52.254Z,43.87
2019-01-17T16:21:19.189Z,44.52
2019-01-17T16:23:46.197Z,44.12
2019-01-17T16:26:12.864Z,43.86
2019-01-17T16:28:39.533Z,43.76
2019-01-17T16:31:06.806Z,43.86
2019-01-17T16:33:33.434Z,44.61
2019-01-17T16:36:00.332Z,44.53
2019-01-17T16:38:28.725Z,45.53
2019-01-17T16:40:55.340Z,45.45
2019-01-17T16:43:22.026Z,45.80
2019-01-17T16:45:48.644Z,45.92
2019-01-17T16:48:15.449Z,46.11
2019-01-17T16:50:42.604Z,45.89
2019-01-17T16:53:09.471Z,45.95
2019-01-17T16:55:36.627Z,45.92
2019-01-17T16:58:03.486Z,45.97
2019-01-17T17:00:30.115Z,45.81
2019-01-17T17:02:56.746Z,46.29
2019-01-17T17:05:23.624Z,46.39
2019-01-17T17:07:50.874Z,46.64
2019-01-17T17:10:17.654Z,46.94
2019-01-17T17:12:44.555Z,47.01
2019-01-17T17:15:11.194Z,47.20
2019-01-17T17:17:37.805Z,47.47
2019-01-17T17:20:04.878Z,47.11
2019-01-17T17:22:31.695Z,46.86
2019-01-17T17:24:59.120Z,47.11
2019-01-17T17:27:25.749Z,47.01
2019-01-17T17:29:52.385Z,47.25
2019-01-17T17:32:19.012Z,47.08
2019-01-17T17:34:45.833Z,46.80
2019-01-17T17:37:12.538Z,46.67
2019-01-17T17:39:39.144Z,46.85
2019-01-17T17:42:06.020Z,47.12
2019-01-17T17:44:33.217Z,47.64
2019-01-17T17:46:59.966Z,47.63
2019-01-17T17:49:26.884Z,47.51
2019-01-17T17:51:53.580Z,47.97
2019-01-17T17:54:20.181Z,47.83
2019-01-17T17:56:47.002Z,47.88
2019-01-17T17:59:14.765Z,47.90
2019-01-17T18:01:41.404Z,47.80
2019-01-17T18:04:08.106Z,47.60
2019-01-17T18:06:34.749Z,48.00
2019-01-17T18:09:01.374Z,47.69
2019-01-17T18:11:29.447Z,47.87
2019-01-17T18:13:56.172Z,47.83
2019-01-17T18:16:22.885Z,47.54
2019-01-17T18:18:49.525Z,47.66
2019-01-17T18:21:16.228Z,47.94
2019-01-17T18:23:43.097Z,48.56
2019-01-17T18:26:09.740Z,48.87
2019-01-17T18:28:36.416Z,48.64
2019-01-17T18:31:03.599Z,48.82
2019-01-17T18:33:30.342Z,48.78
2019-01-17T18:35:57.244Z,49.03
2019-01-17T18:38:23.868Z,48.81
2019-01-17T18:40:50.436Z,49.03
2019-01-17T18:43:17.365Z,49.16
2019-01-17T18:45:43.992Z,48.91
2019-01-17T18:48:10.605Z,49.43
2019-01-17T18:50:37.811Z,49.73
2019-01-17T18:53:04.659Z,49.47
2019-01-17T18:55:31.559Z,49.39
2019-01-17T18:57:59.930Z,48.83
2019-01-17T19:00:26.630Z,48.88
2019-01-17T19:02:53.624Z,49.12
2019-01-17T19:05:20.253Z,49.17
2019-01-17T19:07:46.889Z,48.92
2019-01-17T19:10:13.655Z,48.87
2019-01-17T19:12:40.283Z,49.06
2019-01-17T19:15:06.933Z,49.79
2019-01-17T19:17:33.690Z,50.12
2019-01-17T19:20:00.335Z,49.83
2019-01-17T19:22:26.963Z,49.55
2019-01-17T19:24:53.991Z,49.93
2019-01-17T19:27:21.869Z,50.08
2019-01-17T19:29:48.494Z,50.25
2019-01-17T19:32:15.152Z,50.35
2019-01-17T19:34:41.882Z,50.49
2019-01-17T19:37:08.492Z,50.26
2019-01-17T19:39:35.151Z,50.23
2019-01-17T19:42:02.091Z,50.25
2019-01-17T19:44:30.212Z,50.53
2019-01-17T19:46:57.036Z,50.69
2019-01-17T19:49:23.948Z,50.53
2019-01-17T19:51:50.552Z,51.10
2019-01-17T19:54:17.167Z,51.00
2019-01-17T19:56:44.108Z,50.57
2019-01-17T19:59:10.995Z,49.74
2019-01-17T20:01:37.710Z,49.43
2019-01-17T20:04:07.617Z,50.03
2019-01-17T20:06:34.289Z,50.07
2019-01-17T20:09:01.091Z,50.08
2019-01-17T20:11:27.750Z,49.71
2019-01-17T20:13:54.421Z,50.01
2019-01-17T20:16:21.193Z,50.21
2019-01-17T20:18:47.982Z,50.46
2019-01-17T20:21:14.610Z,50.21
2019-01-17T20:23:41.372Z,50.14
2019-01-17T20:26:07.998Z,50.39
2019-01-17T20:28:35.812Z,50.81
2019-01-17T20:31:03.870Z,51.25
2019-01-17T20:33:30.933Z,51.34
2019-01-17T20:35:57.524Z,51.39
2019-01-17T20:38:24.433Z,51.37
2019-01-17T20:40:51.039Z,51.07
2019-01-17T20:43:17.992Z,50.74
2019-01-17T20:45:44.633Z,50.36
2019-01-17T20:48:12.326Z,50.88
2019-01-17T20:50:39.130Z,51.00
2019-01-17T20:53:05.719Z,51.23
2019-01-17T20:55:32.646Z,51.55
2019-01-17T20:58:01.035Z,51.40
2019-01-17T21:00:27.751Z,50.82
2019-01-17T21:02:54.790Z,50.79
2019-01-17T21:05:21.762Z,50.65
2019-01-17T21:07:48.693Z,50.69
2019-01-17T21:10:15.292Z,50.90
2019-01-17T21:12:42.274Z,51.03
2019-01-17T21:15:09.145Z,50.90
2019-01-17T21:20:22.646Z,50.97
2019-01-17T21:22:52.794Z,51.40
2019-01-17T21:25:23.229Z,51.54
2019-01-17T21:27:55.618Z,51.27
2019-01-17T21:33:12.540Z,51.40
2019-01-17T21:35:39.146Z,51.78
2019-01-17T21:38:11.396Z,52.40
2019-01-17T21:40:40.038Z,52.22
2019-01-17T21:43:11.868Z,51.45
2019-01-17T21:45:42.763Z,51.22
2019-01-17T21:48:10.042Z,51.07
2019-01-17T21:50:40.707Z,50.80
2019-01-17T21:53:10.529Z,50.78
2019-01-17T21:55:38.039Z,50.76
2019-01-17T22:13:06.297Z,52.00
2019-01-17T22:15:32.932Z,51.85
2019-01-17T22:17:59.795Z,51.88
2019-01-17T22:20:26.414Z,52.19
2019-01-17T22:22:53.019Z,52.20
2019-01-17T22:25:19.635Z,51.74
2019-01-17T22:27:46.386Z,51.38
2019-01-17T22:30:13.130Z,51.14
2019-01-17T22:32:39.851Z,50.84
2019-01-17T22:35:06.471Z,50.86
2019-01-17T22:37:33.262Z,50.74
2019-01-17T22:40:00.518Z,51.75
2019-01-17T22:42:27.135Z,52.21
2019-01-17T22:44:54.033Z,52.43
2019-01-17T22:47:20.640Z,52.60
2019-01-17T22:49:47.299Z,52.62
2019-01-17T22:52:13.895Z,52.20
2019-01-17T22:54:40.700Z,51.74
2019-01-17T22:57:09.093Z,51.49
2019-01-17T22:59:35.768Z,50.97
2019-01-17T23:02:02.420Z,50.88
2019-01-17T23:04:29.080Z,50.65
2019-01-17T23:06:55.979Z,50.27
2019-01-17T23:09:22.882Z,50.17
2019-01-17T23:11:49.607Z,50.24
2019-01-17T23:14:16.227Z,50.16
2019-01-17T23:16:43.036Z,50.04
2019-01-17T23:19:09.951Z,50.39
2019-01-17T23:21:36.543Z,50.26
2019-01-17T23:24:03.126Z,50.90
2019-01-17T23:26:30.108Z,50.58
2019-01-17T23:28:57.304Z,50.57
2019-01-17T23:31:24.134Z,51.08
2019-01-17T23:33:51.321Z,50.99
2019-01-17T23:36:18.193Z,50.94
2019-01-17T23:38:45.434Z,51.60
2019-01-17T23:41:12.128Z,51.97
2019-01-17T23:43:39.597Z,51.85
2019-01-17T23:46:06.230Z,51.34
2019-01-17T23:48:33.125Z,51.42
2019-01-17T23:50:59.734Z,50.71
2019-01-17T23:53:26.600Z,50.52
2019-01-17T23:55:53.286Z,50.28
2019-01-17T23:58:19.916Z,49.86
